Time;durP1;ratioP1;P1;durP2;ratioP2;P2;SDS_P1;SDS_P2;PMS_P1;PMS_P2;Temp;Humidity;BMP_temperature;BMP_pressure;BME280_temperature;BME280_humidity;BME280_pressure;Samples;Min_cycle;Max_cycle;Signal;HPM_P1;HPM_P2
2023/08/06 00:03:19;;;;;;;20.00;15.90;;;;;;;17.98;92.24;97547.83;226164;1279;22538;-78
2023/08/06 00:08:24;;;;;;;15.70;12.30;;;;;;;17.97;92.36;97544.82;226188;1256;22551;-79
2023/08/06 00:13:53;;;;;;;;;;;;;;;;;;;;;
2023/08/06 00:18:56;;;;;;;17.40;13.60;;;;;;;18.01;92.44;97499.77;226120;1278;22676;-78
2023/08/06 00:24:01;;;;;;;21.30;15.60;;;;;;;18.01;92.39;97480.05;225974;1278;22587;-79
2023/08/06 00:29:16;;;;;;;30.90;18.70;;;;;;;18.01;92.40;97451.34;226213;1277;22550;-78
2023/08/06 00:34:32;;;;;;;36.80;21.60;;;;;;;18.02;92.59;97425.47;225569;1283;22536;-79
2023/08/06 00:39:40;;;;;;;35.90;23.10;;;;;;;17.99;92.49;97395.14;225295;1282;22548;-79
2023/08/06 00:44:42;;;;;;;38.50;22.00;;;;;;;17.96;92.49;97370.36;225395;1282;22544;-79
2023/08/06 00:49:57;;;;;;;40.10;23.10;;;;;;;17.94;92.62;97355.04;225401;1282;22470;-79
2023/08/06 00:55:04;;;;;;;41.50;23.30;;;;;;;17.93;92.74;97338.84;225405;1282;22527;-79
2023/08/06 01:00:12;;;;;;;44.80;24.20;;;;;;;17.94;92.82;97332.70;226133;1279;22537;-79
2023/08/06 01:05:18;;;;;;;40.70;23.10;;;;;;;17.95;92.83;97356.84;226039;1278;22538;-80
2023/08/06 01:10:39;;;;;;;42.10;23.40;;;;;;;17.97;92.89;97365.17;226029;1278;22662;-81
2023/08/06 01:16:03;;;;;;;39.40;23.60;;;;;;;18.01;93.04;97327.70;226029;1279;22710;-80
2023/08/06 01:21:28;;;;;;;40.30;23.50;;;;;;;18.03;92.94;97289.05;226084;1278;23843;-79
2023/08/06 01:26:41;;;;;;;38.70;22.80;;;;;;;18.06;93.05;97276.59;225933;1275;22537;-81
2023/08/06 01:31:50;;;;;;;46.50;23.60;;;;;;;18.08;92.83;97260.07;225975;1278;22545;-80
2023/08/06 01:37:03;;;;;;;39.40;22.60;;;;;;;18.05;92.77;97261.08;226178;1275;22556;-80
2023/08/06 01:42:17;;;;;;;;;;;;;;;;;;;;;
2023/08/06 01:47:34;;;;;;;47.40;24.00;;;;;;;18.05;92.80;97281.77;226067;1279;22602;-80
2023/08/06 01:52:40;;;;;;;39.40;22.60;;;;;;;18.08;92.93;97254.77;226051;1278;22532;-80
2023/08/06 01:57:56;;;;;;;41.00;23.40;;;;;;;18.08;92.91;97254.98;225988;1278;22488;-80
2023/08/06 02:03:22;;;;;;;46.30;23.90;;;;;;;18.10;92.84;97238.63;225891;1272;23053;-79
2023/08/06 02:08:43;;;;;;;44.40;23.10;;;;;;;18.10;92.97;97234.61;226124;1279;22565;-80
2023/08/06 02:13:46;;;;;;;44.60;24.10;;;;;;;18.11;92.90;97220.89;226099;1279;22532;-81
2023/08/06 02:19:08;;;;;;;45.20;23.60;;;;;;;18.12;92.89;97225.70;225564;1281;22556;-80
2023/08/06 02:24:11;;;;;;;41.70;24.00;;;;;;;18.13;92.86;97242.33;225427;1281;22532;-80
2023/08/06 02:29:21;;;;;;;47.60;24.50;;;;;;;18.13;92.81;97250.13;225457;1281;22561;-79
2023/08/06 02:34:24;;;;;;;44.20;23.10;;;;;;;18.14;92.74;97260.40;225459;1281;22726;-79
2023/08/06 02:39:27;;;;;;;49.50;25.30;;;;;;;18.13;92.73;97236.61;225402;1281;22541;-79
2023/08/06 02:44:30;;;;;;;48.10;24.90;;;;;;;18.14;92.94;97218.75;225479;1265;22483;-79
2023/08/06 02:49:43;;;;;;;42.60;24.30;;;;;;;18.17;92.93;97219.05;225792;1279;25910;-80
2023/08/06 02:54:45;;;;;;;50.20;24.80;;;;;;;18.18;92.90;97217.93;225979;1278;22528;-80
2023/08/06 02:59:48;;;;;;;50.50;24.60;;;;;;;18.18;92.88;97213.08;226145;1275;22537;-80
2023/08/06 03:04:54;;;;;;;45.90;24.80;;;;;;;18.19;93.01;97208.25;226142;1269;22544;-81
2023/08/06 03:10:07;;;;;;;49.70;23.50;;;;;;;18.20;92.95;97205.89;226038;1279;22545;-81
2023/08/06 03:15:10;;;;;;;44.30;21.20;;;;;;;18.20;92.90;97200.50;225933;1278;22661;-79
2023/08/06 03:20:13;;;;;;;37.80;20.70;;;;;;;18.17;92.90;97199.27;226113;1278;22533;-81
2023/08/06 03:25:17;;;;;;;29.90;18.40;;;;;;;18.14;92.96;97192.92;226027;1278;22544;-81
2023/08/06 03:30:24;;;;;;;22.40;16.00;;;;;;;18.10;92.63;97207.66;226007;1279;22515;-80
2023/08/06 03:35:28;;;;;;;16.30;12.20;;;;;;;18.05;92.71;97201.38;225966;1280;22541;-80
2023/08/06 03:40:43;;;;;;;9.60;8.70;;;;;;;18.00;92.55;97197.33;225922;1278;22545;-81
2023/08/06 03:45:49;;;;;;;6.50;5.40;;;;;;;17.93;92.45;97195.17;226210;1279;22567;-81
2023/08/06 03:50:57;;;;;;;4.80;4.40;;;;;;;17.88;92.61;97191.50;226058;1278;22533;-80
2023/08/06 03:56:02;;;;;;;4.00;3.70;;;;;;;17.84;92.50;97187.08;226038;1278;22537;-79
2023/08/06 04:01:05;;;;;;;4.10;2.60;;;;;;;17.77;92.37;97185.36;225908;1278;22569;-80
2023/08/06 04:06:46;;;;;;;2.60;2.40;;;;;;;17.66;92.03;97183.23;226149;1280;22533;-81
2023/08/06 04:11:55;;;;;;;3.10;2.90;;;;;;;17.57;91.79;97184.63;225999;1278;22577;-78
2023/08/06 04:17:21;;;;;;;;;;;;;;;;;;;;;
2023/08/06 04:22:51;;;;;;;2.70;2.50;;;;;;;17.34;91.62;97171.68;226173;1264;22537;-81
2023/08/06 04:28:10;;;;;;;3.00;2.80;;;;;;;17.19;91.43;97174.31;225568;1281;22569;-80
2023/08/06 04:33:16;;;;;;;4.10;2.50;;;;;;;17.09;91.54;97191.09;225452;1281;22558;-81
2023/08/06 04:38:44;;;;;;;;;;;;;;;;;;;;;
2023/08/06 04:44:01;;;;;;;6.60;2.90;;;;;;;16.83;91.72;97175.14;225385;1282;22684;-82
2023/08/06 04:49:43;;;;;;;4.40;2.30;;;;;;;16.69;92.05;97150.61;225391;1273;22552;-82
2023/08/06 04:55:31;;;;;;;3.20;2.40;;;;;;;16.54;91.98;97143.48;225946;1278;25243;-81
2023/08/06 05:00:56;;;;;;;3.80;1.60;;;;;;;16.39;92.18;97148.22;226020;1279;22534;-81
2023/08/06 05:06:35;;;;;;;5.10;1.20;;;;;;;16.21;92.33;97137.17;226116;1280;22654;-83
2023/08/06 05:11:40;;;;;;;1.10;0.60;;;;;;;16.06;92.40;97133.92;226173;1278;22542;-81
2023/08/06 05:16:42;;;;;;;0.50;0.50;;;;;;;15.94;92.62;97139.77;226158;1279;22566;-80
2023/08/06 05:21:45;;;;;;;0.90;0.50;;;;;;;15.84;92.87;97143.46;226181;1280;22585;-82
2023/08/06 05:27:00;;;;;;;1.80;0.90;;;;;;;15.76;93.05;97138.63;225976;1280;22533;-81
2023/08/06 05:32:13;;;;;;;3.30;0.80;;;;;;;15.69;93.23;97130.05;226152;1280;22839;-82
2023/08/06 05:37:24;;;;;;;0.80;0.50;;;;;;;15.64;93.28;97120.17;226040;1279;22538;-81
2023/08/06 05:42:30;;;;;;;1.30;0.80;;;;;;;15.62;93.53;97113.82;226213;1280;22617;-81
2023/08/06 05:47:42;;;;;;;1.30;0.70;;;;;;;15.61;93.72;97111.52;226167;1277;25246;-79
2023/08/06 05:52:44;;;;;;;1.00;0.90;;;;;;;15.58;93.55;97113.52;226180;1276;22730;-81
2023/08/06 05:57:47;;;;;;;0.80;0.70;;;;;;;15.56;93.61;97120.70;226143;1279;22533;-83
2023/08/06 06:03:15;;;;;;;1.10;0.60;;;;;;;15.54;93.78;97112.83;226036;1279;22535;-82
2023/08/06 06:08:17;;;;;;;1.50;0.70;;;;;;;15.51;93.65;97116.05;226123;1272;22583;-81
2023/08/06 06:13:31;;;;;;;1.00;0.60;;;;;;;15.46;93.56;97113.36;226078;1279;22530;-82
2023/08/06 06:18:33;;;;;;;1.50;0.80;;;;;;;15.38;93.59;97108.55;225874;1279;22540;-81
2023/08/06 06:23:35;;;;;;;2.80;0.50;;;;;;;15.30;93.72;97085.94;226059;1279;22567;-81
2023/08/06 06:28:38;;;;;;;1.00;0.60;;;;;;;15.26;93.93;97068.85;226020;1280;22530;-79
2023/08/06 06:33:43;;;;;;;0.70;0.40;;;;;;;15.26;93.93;97069.38;225906;1280;22643;-81
2023/08/06 06:38:45;;;;;;;2.00;0.70;;;;;;;15.24;94.14;97068.78;226112;1279;22527;-82
2023/08/06 06:43:48;;;;;;;0.40;0.30;;;;;;;15.19;94.07;97073.02;226046;1278;22540;-81
2023/08/06 06:48:50;;;;;;;0.60;0.50;;;;;;;15.15;94.14;97074.52;226066;1279;22533;-79
2023/08/06 06:53:55;;;;;;;1.20;0.60;;;;;;;15.10;94.33;97050.89;226197;1279;22554;-80
2023/08/06 06:59:00;;;;;;;0.50;0.40;;;;;;;15.03;94.24;97040.84;225924;1279;22546;-80
2023/08/06 07:04:04;;;;;;;1.20;0.50;;;;;;;14.98;94.24;97058.08;226134;1278;22583;-79
2023/08/06 07:09:07;;;;;;;1.30;0.50;;;;;;;14.95;94.26;97048.75;226159;1276;22547;-80
2023/08/06 07:14:09;;;;;;;0.70;0.40;;;;;;;14.92;94.00;97041.34;226201;1276;22537;-81
2023/08/06 07:19:41;;;;;;;2.80;0.40;;;;;;;14.88;94.43;97052.26;226212;1279;22538;-80
2023/08/06 07:24:45;;;;;;;8.20;6.70;;;;;;;14.81;94.11;97076.59;226212;1271;22552;-81
2023/08/06 07:30:09;;;;;;;3.00;0.50;;;;;;;14.74;94.28;97077.07;226083;1276;22552;-79
2023/08/06 07:35:14;;;;;;;1.20;0.60;;;;;;;14.69;94.32;97057.31;226038;1279;22534;-80
2023/08/06 07:40:44;;;;;;;0.70;0.30;;;;;;;14.64;94.29;97062.77;226176;1279;22553;-80
2023/08/06 07:46:02;;;;;;;0.70;0.40;;;;;;;14.55;94.31;97069.45;226144;1276;22536;-81
2023/08/06 07:51:04;;;;;;;1.10;0.50;;;;;;;14.50;94.60;97057.14;226165;1277;22555;-79
2023/08/06 07:56:09;;;;;;;0.50;0.20;;;;;;;14.46;94.50;97040.95;226166;1279;22543;-80
2023/08/06 08:01:14;;;;;;;0.50;0.40;;;;;;;14.41;94.46;97028.25;226233;1277;22531;-79
2023/08/06 08:06:25;;;;;;;0.60;0.40;;;;;;;14.36;94.59;97045.85;226020;1279;22541;-79
2023/08/06 08:11:58;;;;;;;2.30;0.40;;;;;;;14.34;94.79;97054.96;226010;1279;22537;-81
2023/08/06 08:17:17;;;;;;;0.70;0.30;;;;;;;14.29;94.41;97050.08;226038;1279;22542;-80
2023/08/06 08:22:22;;;;;;;0.20;0.20;;;;;;;14.25;94.62;97030.55;226145;1277;22537;-80
2023/08/06 08:27:24;;;;;;;0.30;0.30;;;;;;;14.20;94.76;97014.69;226127;1276;22549;-79
2023/08/06 08:32:27;;;;;;;0.80;0.30;;;;;;;14.19;94.72;97033.27;226090;1279;22576;-80
2023/08/06 08:37:29;;;;;;;1.50;0.50;;;;;;;14.22;94.93;97050.46;226141;1276;22563;-80
2023/08/06 08:42:36;;;;;;;1.40;0.30;;;;;;;14.27;94.94;97056.13;226079;1273;23616;-78
2023/08/06 08:53:34;;;;;;;0.90;0.40;;;;;;;14.45;95.17;97044.98;225963;1279;23742;-79
2023/08/06 08:58:39;;;;;;;0.60;0.40;;;;;;;14.46;94.77;97040.41;226121;1276;24347;-78
2023/08/06 09:04:02;;;;;;;0.70;0.30;;;;;;;14.47;94.90;97040.95;226084;1272;22530;-79
2023/08/06 09:09:27;;;;;;;0.50;0.20;;;;;;;14.51;94.77;97043.70;226135;1280;22555;-77
2023/08/06 09:14:40;;;;;;;;;;;;;;;;;;;;;
2023/08/06 09:20:29;;;;;;;0.40;0.20;;;;;;;14.57;94.91;97053.71;226048;1279;22541;-77
2023/08/06 09:25:41;;;;;;;0.30;0.30;;;;;;;14.57;94.56;97053.34;225979;1277;22540;-78
2023/08/06 09:30:50;;;;;;;0.10;0.10;;;;;;;14.57;94.88;97045.90;226114;1279;22609;-80
2023/08/06 09:36:12;;;;;;;0.50;0.20;;;;;;;14.56;94.66;97047.23;226075;1279;22606;-80
2023/08/06 09:41:27;;;;;;;1.00;0.50;;;;;;;14.54;94.87;97046.75;225792;1279;22619;-77
2023/08/06 09:46:32;;;;;;;5.80;4.90;;;;;;;14.55;94.65;97044.25;226145;1279;22535;-78
2023/08/06 09:51:35;;;;;;;0.40;0.30;;;;;;;14.54;94.63;97031.81;226146;1276;22557;-78
2023/08/06 09:56:58;;;;;;;0.20;0.20;;;;;;;14.52;94.59;97032.65;226066;1272;22554;-77
2023/08/06 10:02:00;;;;;;;0.30;0.30;;;;;;;14.58;94.65;97038.79;226084;1275;22533;-77
2023/08/06 10:07:06;;;;;;;0.80;0.40;;;;;;;14.69;95.02;97049.44;226008;1276;22532;-77
2023/08/06 10:12:12;;;;;;;0.60;0.50;;;;;;;14.72;94.76;97055.52;225990;1279;25250;-78
2023/08/06 10:17:23;;;;;;;0.60;0.30;;;;;;;14.70;94.40;97062.48;226073;1276;22536;-77
2023/08/06 10:22:33;;;;;;;0.70;0.30;;;;;;;14.66;94.61;97063.73;225994;1273;24218;-78
2023/08/06 10:27:43;;;;;;;0.40;0.30;;;;;;;14.60;94.38;97075.27;226095;1279;25374;-78
2023/08/06 10:33:12;;;;;;;0.60;0.40;;;;;;;14.58;94.55;97076.27;226061;1272;22545;-77
2023/08/06 10:38:15;;;;;;;1.10;0.40;;;;;;;14.58;94.42;97080.73;226048;1279;22600;-77
2023/08/06 10:43:43;;;;;;;0.60;0.60;;;;;;;14.58;94.68;97077.22;225962;1279;24406;-79
2023/08/06 10:48:58;;;;;;;0.80;0.50;;;;;;;14.62;95.04;97085.86;225797;1279;395572;-78
2023/08/06 10:54:00;;;;;;;0.70;0.70;;;;;;;14.69;95.15;97096.34;226018;1276;22540;-78
2023/08/06 10:59:02;;;;;;;0.80;0.80;;;;;;;14.75;94.89;97112.22;226077;1272;25282;-77
2023/08/06 11:04:05;;;;;;;3.10;1.60;;;;;;;14.82;94.88;97120.30;226105;1279;22553;-77
2023/08/06 11:09:09;;;;;;;1.60;1.10;;;;;;;14.90;94.69;97121.63;226012;1276;22600;-77
2023/08/06 11:14:15;;;;;;;1.00;0.90;;;;;;;14.94;94.51;97125.06;225976;1269;22552;-78
2023/08/06 11:19:17;;;;;;;1.30;1.20;;;;;;;14.93;94.74;97122.34;226012;1275;22749;-77
2023/08/06 11:24:27;;;;;;;2.50;1.50;;;;;;;14.94;94.51;97118.04;225978;1275;23525;-78
2023/08/06 11:29:29;;;;;;;1.80;1.40;;;;;;;14.99;94.52;97127.75;226042;1272;22565;-78
2023/08/06 11:34:41;;;;;;;1.30;0.90;;;;;;;15.03;94.58;97135.44;226046;1279;22544;-79
2023/08/06 11:39:48;;;;;;;1.00;0.90;;;;;;;15.09;94.68;97141.70;225987;1272;24244;-78
2023/08/06 11:45:02;;;;;;;0.80;0.60;;;;;;;15.13;94.66;97146.73;226010;1279;22540;-77
2023/08/06 11:50:05;;;;;;;1.00;1.00;;;;;;;15.23;94.71;97148.48;226020;1275;22629;-77
2023/08/06 11:55:14;;;;;;;0.90;0.80;;;;;;;15.38;94.58;97146.27;226072;1275;22535;-78
2023/08/06 12:00:18;;;;;;;1.10;0.50;;;;;;;15.59;94.66;97150.97;226006;1276;23029;-78
2023/08/06 12:05:24;;;;;;;0.90;0.80;;;;;;;15.76;94.12;97151.84;225895;1276;22559;-77
2023/08/06 12:10:28;;;;;;;0.80;0.80;;;;;;;15.88;93.81;97156.63;226016;1276;22543;-77
2023/08/06 12:15:30;;;;;;;0.80;0.80;;;;;;;15.88;93.32;97167.71;226034;1257;22588;-78
2023/08/06 12:20:43;;;;;;;0.80;0.70;;;;;;;15.94;93.40;97168.90;225967;1273;25243;-78
2023/08/06 12:25:54;;;;;;;0.60;0.60;;;;;;;15.89;93.03;97178.42;225974;1276;22536;-78
2023/08/06 12:31:01;;;;;;;0.90;0.90;;;;;;;15.85;93.12;97182.25;225992;1279;22543;-78
2023/08/06 12:36:09;;;;;;;1.50;1.40;;;;;;;15.91;93.19;97180.23;225957;1273;22578;-78
2023/08/06 12:41:14;;;;;;;0.50;0.50;;;;;;;15.85;93.01;97188.38;225930;1273;22582;-78
2023/08/06 12:46:22;;;;;;;0.40;0.40;;;;;;;15.87;93.33;97190.83;225941;1276;23008;-78
2023/08/06 12:51:27;;;;;;;0.40;0.30;;;;;;;15.97;93.57;97195.88;225997;1272;22558;-78
2023/08/06 12:56:44;;;;;;;0.80;0.30;;;;;;;15.99;92.87;97194.23;225996;1279;22536;-79
2023/08/06 13:01:49;;;;;;;0.20;0.20;;;;;;;16.00;92.97;97195.30;225986;1279;22544;-79
2023/08/06 13:06:52;;;;;;;0.50;0.20;;;;;;;16.09;92.96;97197.61;226059;1279;22491;-79
2023/08/06 13:11:54;;;;;;;0.10;0.10;;;;;;;16.15;92.99;97186.66;225956;1277;22540;-78
2023/08/06 13:16:57;;;;;;;0.70;0.40;;;;;;;16.22;92.78;97179.80;225988;1279;22544;-80
2023/08/06 13:22:05;;;;;;;0.20;0.10;;;;;;;16.26;92.69;97179.38;225971;1275;22549;-80
2023/08/06 13:27:13;;;;;;;0.20;0.10;;;;;;;16.25;92.53;97176.66;225936;1277;22542;-80
2023/08/06 13:32:19;;;;;;;0.20;0.20;;;;;;;16.26;92.41;97185.24;226037;1275;22547;-80
2023/08/06 13:37:24;;;;;;;1.00;0.30;;;;;;;16.36;92.80;97193.48;225994;1276;22559;-79
2023/08/06 13:42:26;;;;;;;0.30;0.30;;;;;;;16.46;92.91;97188.32;226015;1272;25941;-80
2023/08/06 13:47:29;;;;;;;0.40;0.30;;;;;;;16.58;92.53;97197.84;226014;1276;22540;-79
2023/08/06 13:52:47;;;;;;;0.50;0.30;;;;;;;16.76;92.67;97205.86;226023;1279;22543;-80
2023/08/06 13:57:52;;;;;;;0.80;0.40;;;;;;;16.90;91.71;97202.89;225947;1275;22550;-80
2023/08/06 14:02:54;;;;;;;0.50;0.40;;;;;;;16.92;91.44;97214.04;226013;1260;22533;-80
2023/08/06 14:07:56;;;;;;;0.50;0.40;;;;;;;17.00;91.30;97213.50;225987;1273;22533;-81
2023/08/06 14:13:19;;;;;;;0.50;0.50;;;;;;;16.95;90.92;97218.63;225943;1276;22578;-80
2023/08/06 14:18:21;;;;;;;1.00;0.60;;;;;;;16.86;90.45;97221.56;225948;1274;22539;-80
2023/08/06 14:23:34;;;;;;;0.50;0.40;;;;;;;16.93;90.37;97234.21;225909;1279;22553;-81
2023/08/06 14:28:36;;;;;;;0.50;0.50;;;;;;;17.09;90.57;97225.61;225946;1279;22537;-81
2023/08/06 14:33:39;;;;;;;0.50;0.50;;;;;;;17.10;89.81;97236.88;226060;1275;22572;-81
2023/08/06 14:38:50;;;;;;;0.50;0.50;;;;;;;16.89;89.95;97252.77;225978;1279;22545;-81
2023/08/06 14:44:01;;;;;;;0.70;0.70;;;;;;;16.57;89.85;97271.00;225951;1278;23302;-80
2023/08/06 14:49:06;;;;;;;1.30;0.40;;;;;;;16.33;90.23;97283.40;225988;1279;22550;-80
2023/08/06 14:54:08;;;;;;;0.50;0.50;;;;;;;16.28;90.25;97294.27;226039;1275;22761;-80
2023/08/06 14:59:14;;;;;;;0.50;0.50;;;;;;;16.42;90.63;97304.23;225983;1276;22525;-80
2023/08/06 15:04:16;;;;;;;0.50;0.50;;;;;;;16.52;90.69;97311.23;226085;1275;23255;-80
2023/08/06 15:09:24;;;;;;;0.50;0.40;;;;;;;16.58;90.04;97311.42;225883;1279;22555;-79
2023/08/06 15:14:26;;;;;;;0.40;0.40;;;;;;;16.57;89.67;97314.94;226087;1276;22656;-80
2023/08/06 15:19:40;;;;;;;0.90;0.50;;;;;;;16.73;89.65;97314.31;226117;1275;23252;-80
2023/08/06 15:24:50;;;;;;;1.10;0.70;;;;;;;16.86;88.93;97315.27;226081;1279;22548;-79
2023/08/06 15:29:55;;;;;;;0.60;0.60;;;;;;;16.86;88.68;97308.42;226127;1275;22576;-80
2023/08/06 15:34:58;;;;;;;1.40;0.50;;;;;;;16.74;88.51;97305.73;226029;1276;22694;-81
2023/08/06 15:40:03;;;;;;;1.80;0.30;;;;;;;16.56;88.69;97303.09;225967;1279;22544;-80
2023/08/06 15:45:15;;;;;;;0.40;0.40;;;;;;;16.35;88.60;97298.66;225889;1275;22578;-78
2023/08/06 15:50:17;;;;;;;0.40;0.40;;;;;;;16.23;88.76;97321.69;226105;1272;22547;-79
2023/08/06 15:55:24;;;;;;;0.30;0.30;;;;;;;16.18;89.00;97332.95;226091;1279;22550;-80
2023/08/06 16:00:52;;;;;;;0.40;0.40;;;;;;;16.12;89.20;97347.23;226048;1279;22533;-80
2023/08/06 16:05:55;;;;;;;0.40;0.40;;;;;;;16.04;89.03;97351.00;226005;1278;22581;-81
2023/08/06 16:11:07;;;;;;;0.50;0.50;;;;;;;15.94;88.79;97368.59;226084;1279;22590;-79
2023/08/06 16:16:12;;;;;;;1.20;0.50;;;;;;;15.89;88.72;97385.97;226214;1279;22524;-81
2023/08/06 16:21:18;;;;;;;0.50;0.50;;;;;;;15.83;88.78;97392.65;226171;1279;22596;-80
2023/08/06 16:26:21;;;;;;;1.30;0.50;;;;;;;15.82;88.81;97400.41;226086;1279;22546;-80
2023/08/06 16:32:04;;;;;;;0.60;0.60;;;;;;;15.78;88.76;97414.45;226098;1272;23627;-79
2023/08/06 16:37:09;;;;;;;0.60;0.60;;;;;;;15.76;88.95;97416.18;226148;1279;22559;-81
2023/08/06 16:42:37;;;;;;;0.70;0.70;;;;;;;15.77;88.80;97417.04;226050;1279;22546;-78
2023/08/06 16:47:54;;;;;;;1.40;0.70;;;;;;;15.74;88.75;97419.95;225978;1279;22544;-80
2023/08/06 16:53:08;;;;;;;0.80;0.70;;;;;;;15.72;88.83;97425.33;226109;1279;23687;-80
2023/08/06 16:58:26;;;;;;;0.80;0.70;;;;;;;15.72;88.94;97435.17;226098;1276;22556;-80
2023/08/06 17:03:34;;;;;;;1.10;0.60;;;;;;;15.74;89.01;97446.41;226044;1278;23310;-81
2023/08/06 17:08:39;;;;;;;1.10;0.60;;;;;;;15.72;88.88;97450.02;226209;1272;22557;-81
2023/08/06 17:14:14;;;;;;;0.70;0.70;;;;;;;15.70;88.90;97459.66;226050;1279;22552;-79
2023/08/06 17:19:25;;;;;;;0.70;0.70;;;;;;;15.68;88.69;97468.27;226157;1275;23322;-80
2023/08/06 17:25:00;;;;;;;3.10;2.90;;;;;;;15.63;88.72;97464.38;226033;1279;22551;-82
2023/08/06 17:30:23;;;;;;;2.10;0.80;;;;;;;15.56;88.37;97469.60;226137;1276;22536;-78
2023/08/06 17:35:56;;;;;;;;;;;;;;;;;;;;;
2023/08/06 17:41:12;;;;;;;0.90;0.70;;;;;;;15.45;88.53;97462.20;226079;1276;25332;-81
2023/08/06 17:46:51;;;;;;;0.70;0.70;;;;;;;15.37;88.65;97469.46;226012;1276;22536;-81
2023/08/06 17:51:52;;;;;;;2.00;0.70;;;;;;;15.26;88.90;97468.30;226189;1276;22544;-81
2023/08/06 17:56:57;;;;;;;0.80;0.80;;;;;;;15.16;88.95;97475.21;226078;1276;22544;-80
2023/08/06 18:02:01;;;;;;;1.30;0.80;;;;;;;15.09;89.17;97475.51;226154;1275;22548;-81
2023/08/06 18:07:18;;;;;;;1.60;1.10;;;;;;;15.04;89.20;97469.84;226148;1279;22567;-81
2023/08/06 18:12:22;;;;;;;1.80;0.90;;;;;;;14.97;89.29;97477.86;226151;1279;22552;-79
2023/08/06 18:17:31;;;;;;;1.80;0.80;;;;;;;14.89;89.29;97481.43;226193;1275;22546;-80
2023/08/06 18:22:34;;;;;;;1.00;0.90;;;;;;;14.82;89.73;97488.22;226169;1260;22549;-81
2023/08/06 18:27:43;;;;;;;2.70;0.90;;;;;;;14.77;89.98;97499.21;226181;1275;22554;-80
2023/08/06 18:32:46;;;;;;;2.10;0.90;;;;;;;14.73;90.16;97500.36;226128;1275;22544;-80
2023/08/06 18:37:49;;;;;;;1.60;0.90;;;;;;;14.67;90.04;97503.75;226159;1276;24906;-80
2023/08/06 18:42:51;;;;;;;1.40;0.90;;;;;;;14.61;90.18;97507.70;226099;1276;22536;-81
2023/08/06 18:47:53;;;;;;;1.80;1.00;;;;;;;14.59;90.31;97506.23;226162;1276;22532;-81
2023/08/06 18:52:58;;;;;;;1.20;1.10;;;;;;;14.58;90.54;97507.12;226163;1276;22928;-81
2023/08/06 18:58:04;;;;;;;1.30;1.20;;;;;;;14.56;90.62;97501.19;226151;1276;22625;-80
2023/08/06 19:03:08;;;;;;;2.70;1.20;;;;;;;14.53;90.89;97501.66;226009;1279;22576;-79
2023/08/06 19:08:23;;;;;;;2.20;1.20;;;;;;;14.50;91.03;97504.48;226036;1277;23062;-81
2023/08/06 19:13:30;;;;;;;1.60;1.20;;;;;;;14.46;91.12;97501.17;225854;1279;22556;-79
2023/08/06 19:18:37;;;;;;;2.50;1.50;;;;;;;14.43;91.19;97499.04;226171;1279;22539;-81
2023/08/06 19:23:39;;;;;;;1.60;1.50;;;;;;;14.39;91.41;97502.21;226149;1276;22554;-81
2023/08/06 19:28:42;;;;;;;2.30;1.50;;;;;;;14.37;91.32;97503.84;226108;1279;22571;-81
2023/08/06 19:33:46;;;;;;;2.30;1.20;;;;;;;14.36;91.66;97511.58;226137;1278;22541;-78
2023/08/06 19:38:49;;;;;;;1.50;1.40;;;;;;;14.34;91.47;97510.20;225994;1279;22547;-82
2023/08/06 19:43:51;;;;;;;2.30;1.40;;;;;;;14.30;91.58;97511.20;226142;1276;22563;-80
2023/08/06 19:48:53;;;;;;;2.80;1.40;;;;;;;14.27;91.53;97515.35;226192;1278;26171;-80
2023/08/06 19:53:57;;;;;;;2.00;1.50;;;;;;;14.27;91.93;97516.58;226176;1278;22521;-79
2023/08/06 19:59:03;;;;;;;1.80;1.70;;;;;;;14.26;91.78;97518.27;226180;1279;22536;-80
2023/08/06 20:04:05;;;;;;;2.20;1.60;;;;;;;14.25;91.71;97524.61;226146;1275;22536;-81
2023/08/06 20:09:07;;;;;;;2.30;1.60;;;;;;;14.23;91.86;97533.17;226176;1275;22536;-80
2023/08/06 20:14:10;;;;;;;1.80;1.70;;;;;;;14.22;91.86;97536.13;226108;1277;22594;-80
2023/08/06 20:19:13;;;;;;;1.70;1.50;;;;;;;14.21;92.01;97531.00;226164;1275;22536;-81
2023/08/06 20:24:20;;;;;;;3.00;1.40;;;;;;;14.20;92.04;97523.02;226153;1275;25908;-78
2023/08/06 20:29:23;;;;;;;1.50;1.40;;;;;;;14.19;92.02;97519.02;226122;1279;22538;-80
2023/08/06 20:34:26;;;;;;;3.30;1.40;;;;;;;14.18;91.93;97520.54;226131;1278;22627;-80
2023/08/06 20:39:50;;;;;;;2.30;1.30;;;;;;;14.16;91.95;97530.70;226052;1280;22539;-80
2023/08/06 20:45:05;;;;;;;1.50;1.30;;;;;;;14.14;91.70;97528.44;226186;1279;24277;-80
2023/08/06 20:50:08;;;;;;;2.50;1.70;;;;;;;14.11;92.12;97523.77;226246;1276;22560;-79
2023/08/06 20:55:23;;;;;;;1.40;1.30;;;;;;;14.09;91.89;97518.70;226024;1278;22536;-80
2023/08/06 21:00:35;;;;;;;1.80;1.60;;;;;;;14.06;92.00;97524.23;226157;1278;22573;-79
2023/08/06 21:05:37;;;;;;;6.50;1.50;;;;;;;14.05;92.27;97526.17;226219;1272;24392;-82
2023/08/06 21:10:55;;;;;;;1.60;1.50;;;;;;;14.04;92.22;97527.48;226092;1280;22661;-79
2023/08/06 21:15:59;;;;;;;1.70;1.60;;;;;;;14.02;92.27;97535.84;226080;1277;22542;-80
2023/08/06 21:21:15;;;;;;;2.00;1.60;;;;;;;13.99;92.52;97533.77;226142;1275;23259;-79
2023/08/06 21:26:20;;;;;;;1.80;1.60;;;;;;;13.97;92.79;97531.98;226120;1279;22581;-79
2023/08/06 21:31:23;;;;;;;3.80;1.70;;;;;;;13.95;92.87;97532.80;226218;1264;22554;-80
2023/08/06 21:36:25;;;;;;;5.70;1.70;;;;;;;13.94;92.96;97529.70;226171;1278;22540;-81
2023/08/06 21:41:46;;;;;;;1.80;1.30;;;;;;;13.94;92.84;97539.60;226176;1273;22537;-81
2023/08/06 21:46:48;;;;;;;3.40;1.80;;;;;;;13.95;92.84;97531.27;226115;1280;22564;-80
2023/08/06 21:51:53;;;;;;;1.90;1.70;;;;;;;13.97;93.06;97521.52;226160;1278;22603;-81
2023/08/06 21:56:55;;;;;;;2.10;1.60;;;;;;;13.99;93.04;97512.31;226121;1275;22642;-78
2023/08/06 22:01:57;;;;;;;1.70;1.60;;;;;;;13.99;93.11;97505.94;226149;1278;22577;-80
2023/08/06 22:06:59;;;;;;;3.50;1.70;;;;;;;13.98;92.90;97507.73;226157;1275;22684;-81
2023/08/06 22:12:02;;;;;;;3.00;1.60;;;;;;;13.96;92.92;97513.95;226172;1276;22554;-79
2023/08/06 22:17:07;;;;;;;3.30;1.80;;;;;;;13.91;92.97;97522.87;226153;1276;22641;-80
2023/08/06 22:22:09;;;;;;;3.10;1.90;;;;;;;13.87;92.93;97524.65;226151;1279;24395;-80
2023/08/06 22:27:11;;;;;;;1.90;1.80;;;;;;;13.84;92.95;97525.29;226164;1272;22536;-80
2023/08/06 22:32:13;;;;;;;3.20;2.50;;;;;;;13.82;93.14;97530.23;225893;1278;22541;-79
2023/08/06 22:37:24;;;;;;;3.00;2.20;;;;;;;13.81;93.13;97524.70;226026;1280;22541;-79
2023/08/06 22:42:26;;;;;;;2.30;2.10;;;;;;;13.81;93.26;97522.18;226127;1273;22541;-80
2023/08/06 22:47:28;;;;;;;2.70;2.50;;;;;;;13.81;93.41;97524.10;222052;1276;5409110;-79
2023/08/06 22:52:31;;;;;;;2.90;2.70;;;;;;;13.83;93.34;97525.16;226043;1279;22650;-79
2023/08/06 22:57:33;;;;;;;3.00;2.80;;;;;;;13.85;93.19;97526.73;226116;1275;22641;-79
2023/08/06 23:02:56;;;;;;;3.50;2.70;;;;;;;13.86;93.16;97531.63;226125;1276;23436;-80
2023/08/06 23:08:20;;;;;;;2.70;2.50;;;;;;;13.87;93.35;97532.98;226102;1275;22532;-78
2023/08/06 23:13:22;;;;;;;3.00;2.70;;;;;;;13.89;93.30;97535.94;226188;1275;22539;-79
2023/08/06 23:18:24;;;;;;;3.60;2.80;;;;;;;13.91;93.34;97542.67;226129;1275;25048;-79
2023/08/06 23:23:29;;;;;;;2.90;2.50;;;;;;;13.93;93.44;97542.23;226028;1278;22567;-79
2023/08/06 23:28:45;;;;;;;3.30;3.00;;;;;;;13.95;93.40;97541.67;226129;1279;22540;-79
2023/08/06 23:34:13;;;;;;;3.20;2.80;;;;;;;13.97;93.33;97543.73;226020;1280;22537;-80
2023/08/06 23:39:55;;;;;;;;;;;;;;;;;;;;;
2023/08/06 23:45:12;;;;;;;3.80;3.50;;;;;;;14.00;93.31;97559.00;226222;1278;23026;-78
2023/08/06 23:50:18;;;;;;;4.40;4.00;;;;;;;13.99;93.47;97556.20;225965;1278;22545;-78
2023/08/06 23:55:30;;;;;;;4.30;3.80;;;;;;;13.98;93.27;97556.38;226132;1279;25353;-79
